sensor_id;sensor_type;location;lat;lon;timestamp;P1;durP1;ratioP1;P2;durP2;ratioP2
19973;SDS011;10148;47.694;9.442;2023-03-31T00:00:31;4.68;;;3.80;;
19973;SDS011;10148;47.694;9.442;2023-03-31T00:02:57;6.07;;;4.63;;
19973;SDS011;10148;47.694;9.442;2023-03-31T00:05:25;7.95;;;4.18;;
19973;SDS011;10148;47.694;9.442;2023-03-31T00:07:55;7.63;;;4.10;;
19973;SDS011;10148;47.694;9.442;2023-03-31T00:10:28;7.95;;;4.47;;
19973;SDS011;10148;47.694;9.442;2023-03-31T00:12:55;7.32;;;4.38;;
19973;SDS011;10148;47.694;9.442;2023-03-31T00:15:21;6.68;;;3.67;;
19973;SDS011;10148;47.694;9.442;2023-03-31T00:17:47;4.10;;;3.60;;
19973;SDS011;10148;47.694;9.442;2023-03-31T00:20:13;6.90;;;4.00;;
19973;SDS011;10148;47.694;9.442;2023-03-31T00:22:38;5.07;;;3.90;;
19973;SDS011;10148;47.694;9.442;2023-03-31T00:25:06;7.25;;;4.13;;
19973;SDS011;10148;47.694;9.442;2023-03-31T00:27:34;6.60;;;4.38;;
19973;SDS011;10148;47.694;9.442;2023-03-31T00:30:00;7.10;;;4.40;;
19973;SDS011;10148;47.694;9.442;2023-03-31T00:32:26;5.60;;;4.07;;
19973;SDS011;10148;47.694;9.442;2023-03-31T00:34:51;9.25;;;4.68;;
19973;SDS011;10148;47.694;9.442;2023-03-31T00:37:17;6.55;;;3.95;;
19973;SDS011;10148;47.694;9.442;2023-03-31T00:39:42;7.70;;;3.70;;
19973;SDS011;10148;47.694;9.442;2023-03-31T00:42:09;6.50;;;4.10;;
19973;SDS011;10148;47.694;9.442;2023-03-31T00:44:38;6.82;;;3.65;;
19973;SDS011;10148;47.694;9.442;2023-03-31T00:47:23;8.27;;;4.18;;
19973;SDS011;10148;47.694;9.442;2023-03-31T00:49:50;5.97;;;3.65;;
19973;SDS011;10148;47.694;9.442;2023-03-31T00:52:26;5.00;;;3.42;;
19973;SDS011;10148;47.694;9.442;2023-03-31T00:55:00;6.15;;;3.55;;
19973;SDS011;10148;47.694;9.442;2023-03-31T00:57:31;4.93;;;3.45;;
19973;SDS011;10148;47.694;9.442;2023-03-31T01:00:02;7.60;;;3.97;;
19973;SDS011;10148;47.694;9.442;2023-03-31T01:02:51;4.97;;;3.47;;
19973;SDS011;10148;47.694;9.442;2023-03-31T01:05:24;5.03;;;3.60;;
19973;SDS011;10148;47.694;9.442;2023-03-31T01:07:56;6.05;;;3.38;;
19973;SDS011;10148;47.694;9.442;2023-03-31T01:10:24;6.47;;;3.17;;
19973;SDS011;10148;47.694;9.442;2023-03-31T01:12:51;5.28;;;3.47;;
19973;SDS011;10148;47.694;9.442;2023-03-31T01:15:19;4.90;;;3.17;;
19973;SDS011;10148;47.694;9.442;2023-03-31T01:17:46;6.70;;;2.97;;
19973;SDS011;10148;47.694;9.442;2023-03-31T01:20:27;5.40;;;3.22;;
19973;SDS011;10148;47.694;9.442;2023-03-31T01:29:22;5.70;;;3.10;;
19973;SDS011;10148;47.694;9.442;2023-03-31T01:43:48;4.78;;;3.45;;
19973;SDS011;10148;47.694;9.442;2023-03-31T01:46:35;7.03;;;4.13;;
19973;SDS011;10148;47.694;9.442;2023-03-31T01:54:36;8.63;;;3.75;;
19973;SDS011;10148;47.694;9.442;2023-03-31T01:57:13;7.15;;;3.80;;
19973;SDS011;10148;47.694;9.442;2023-03-31T01:59:48;4.53;;;3.13;;
19973;SDS011;10148;47.694;9.442;2023-03-31T02:02:29;6.97;;;3.50;;
19973;SDS011;10148;47.694;9.442;2023-03-31T02:05:20;3.63;;;2.85;;
19973;SDS011;10148;47.694;9.442;2023-03-31T02:07:53;5.40;;;3.03;;
19973;SDS011;10148;47.694;9.442;2023-03-31T02:10:22;5.25;;;3.03;;
19973;SDS011;10148;47.694;9.442;2023-03-31T02:12:50;5.88;;;3.08;;
19973;SDS011;10148;47.694;9.442;2023-03-31T02:15:23;5.38;;;3.40;;
19973;SDS011;10148;47.694;9.442;2023-03-31T02:17:53;4.55;;;3.28;;
19973;SDS011;10148;47.694;9.442;2023-03-31T02:20:22;5.70;;;3.38;;
19973;SDS011;10148;47.694;9.442;2023-03-31T02:22:54;6.22;;;3.22;;
19973;SDS011;10148;47.694;9.442;2023-03-31T02:25:22;6.45;;;3.10;;
19973;SDS011;10148;47.694;9.442;2023-03-31T02:27:54;7.88;;;3.45;;
19973;SDS011;10148;47.694;9.442;2023-03-31T02:30:24;6.20;;;3.00;;
19973;SDS011;10148;47.694;9.442;2023-03-31T02:32:56;8.90;;;3.17;;
19973;SDS011;10148;47.694;9.442;2023-03-31T02:35:21;7.97;;;3.33;;
19973;SDS011;10148;47.694;9.442;2023-03-31T02:37:49;4.90;;;2.85;;
19973;SDS011;10148;47.694;9.442;2023-03-31T02:40:16;8.65;;;3.50;;
19973;SDS011;10148;47.694;9.442;2023-03-31T02:42:44;5.82;;;2.80;;
19973;SDS011;10148;47.694;9.442;2023-03-31T02:48:05;5.57;;;2.83;;
19973;SDS011;10148;47.694;9.442;2023-03-31T02:50:36;7.75;;;3.10;;
19973;SDS011;10148;47.694;9.442;2023-03-31T02:56:18;6.43;;;2.90;;
19973;SDS011;10148;47.694;9.442;2023-03-31T02:59:05;5.93;;;2.92;;
19973;SDS011;10148;47.694;9.442;2023-03-31T03:01:50;5.82;;;2.85;;
19973;SDS011;10148;47.694;9.442;2023-03-31T03:04:39;4.18;;;3.08;;
19973;SDS011;10148;47.694;9.442;2023-03-31T03:15:48;7.20;;;3.50;;
19973;SDS011;10148;47.694;9.442;2023-03-31T03:18:23;5.85;;;3.03;;
19973;SDS011;10148;47.694;9.442;2023-03-31T03:20:48;6.70;;;3.40;;
19973;SDS011;10148;47.694;9.442;2023-03-31T03:23:15;7.07;;;3.45;;
19973;SDS011;10148;47.694;9.442;2023-03-31T03:25:41;8.38;;;3.83;;
19973;SDS011;10148;47.694;9.442;2023-03-31T03:28:07;7.60;;;3.60;;
19973;SDS011;10148;47.694;9.442;2023-03-31T03:30:33;5.30;;;2.90;;
19973;SDS011;10148;47.694;9.442;2023-03-31T03:32:58;5.95;;;3.33;;
19973;SDS011;10148;47.694;9.442;2023-03-31T03:35:24;6.53;;;3.05;;
19973;SDS011;10148;47.694;9.442;2023-03-31T03:37:50;7.15;;;3.58;;
19973;SDS011;10148;47.694;9.442;2023-03-31T03:40:16;6.00;;;3.83;;
19973;SDS011;10148;47.694;9.442;2023-03-31T03:42:42;5.97;;;3.83;;
19973;SDS011;10148;47.694;9.442;2023-03-31T03:45:07;10.05;;;4.00;;
19973;SDS011;10148;47.694;9.442;2023-03-31T03:47:33;9.38;;;4.00;;
19973;SDS011;10148;47.694;9.442;2023-03-31T03:50:00;6.07;;;4.25;;
19973;SDS011;10148;47.694;9.442;2023-03-31T03:52:26;7.55;;;3.80;;
19973;SDS011;10148;47.694;9.442;2023-03-31T03:54:52;7.45;;;4.07;;
19973;SDS011;10148;47.694;9.442;2023-03-31T03:57:17;10.68;;;4.05;;
19973;SDS011;10148;47.694;9.442;2023-03-31T03:59:43;8.13;;;3.92;;
19973;SDS011;10148;47.694;9.442;2023-03-31T04:02:08;7.90;;;3.47;;
19973;SDS011;10148;47.694;9.442;2023-03-31T04:04:34;9.30;;;3.97;;
19973;SDS011;10148;47.694;9.442;2023-03-31T04:06:59;6.28;;;3.05;;
19973;SDS011;10148;47.694;9.442;2023-03-31T04:09:25;7.65;;;3.67;;
19973;SDS011;10148;47.694;9.442;2023-03-31T04:11:50;5.32;;;3.42;;
19973;SDS011;10148;47.694;9.442;2023-03-31T04:14:16;6.07;;;3.40;;
19973;SDS011;10148;47.694;9.442;2023-03-31T04:16:41;6.00;;;3.53;;
19973;SDS011;10148;47.694;9.442;2023-03-31T04:19:10;7.37;;;3.30;;
19973;SDS011;10148;47.694;9.442;2023-03-31T04:21:37;5.85;;;3.25;;
19973;SDS011;10148;47.694;9.442;2023-03-31T04:24:09;5.10;;;3.10;;
19973;SDS011;10148;47.694;9.442;2023-03-31T04:26:39;5.80;;;2.90;;
19973;SDS011;10148;47.694;9.442;2023-03-31T04:29:09;4.23;;;3.53;;
19973;SDS011;10148;47.694;9.442;2023-03-31T04:31:36;8.87;;;5.93;;
19973;SDS011;10148;47.694;9.442;2023-03-31T04:34:06;5.03;;;3.00;;
19973;SDS011;10148;47.694;9.442;2023-03-31T04:36:39;4.40;;;3.30;;
19973;SDS011;10148;47.694;9.442;2023-03-31T04:39:11;6.13;;;3.27;;
19973;SDS011;10148;47.694;9.442;2023-03-31T04:41:37;3.10;;;2.30;;
19973;SDS011;10148;47.694;9.442;2023-03-31T04:44:03;6.67;;;2.67;;
19973;SDS011;10148;47.694;9.442;2023-03-31T04:46:28;4.13;;;2.40;;
19973;SDS011;10148;47.694;9.442;2023-03-31T04:48:54;4.37;;;2.70;;
19973;SDS011;10148;47.694;9.442;2023-03-31T04:51:19;5.60;;;2.93;;
19973;SDS011;10148;47.694;9.442;2023-03-31T04:53:45;5.43;;;2.50;;
19973;SDS011;10148;47.694;9.442;2023-03-31T04:56:11;2.70;;;2.30;;
19973;SDS011;10148;47.694;9.442;2023-03-31T04:58:37;3.33;;;2.63;;
19973;SDS011;10148;47.694;9.442;2023-03-31T05:01:03;4.63;;;2.92;;
19973;SDS011;10148;47.694;9.442;2023-03-31T05:03:30;5.50;;;2.60;;
19973;SDS011;10148;47.694;9.442;2023-03-31T05:05:56;5.20;;;3.37;;
19973;SDS011;10148;47.694;9.442;2023-03-31T05:08:22;7.93;;;3.00;;
19973;SDS011;10148;47.694;9.442;2023-03-31T05:10:47;4.10;;;2.67;;
19973;SDS011;10148;47.694;9.442;2023-03-31T05:13:13;3.10;;;2.43;;
19973;SDS011;10148;47.694;9.442;2023-03-31T05:15:39;4.50;;;2.40;;
19973;SDS011;10148;47.694;9.442;2023-03-31T05:18:05;3.50;;;2.00;;
19973;SDS011;10148;47.694;9.442;2023-03-31T05:20:31;3.50;;;2.20;;
19973;SDS011;10148;47.694;9.442;2023-03-31T05:22:56;6.50;;;2.50;;
19973;SDS011;10148;47.694;9.442;2023-03-31T05:25:22;3.40;;;2.50;;
19973;SDS011;10148;47.694;9.442;2023-03-31T05:27:48;4.30;;;2.50;;
19973;SDS011;10148;47.694;9.442;2023-03-31T05:30:15;4.88;;;2.60;;
19973;SDS011;10148;47.694;9.442;2023-03-31T05:32:41;3.23;;;2.10;;
19973;SDS011;10148;47.694;9.442;2023-03-31T05:35:07;3.50;;;2.10;;
19973;SDS011;10148;47.694;9.442;2023-03-31T05:37:33;5.07;;;3.13;;
19973;SDS011;10148;47.694;9.442;2023-03-31T05:39:58;3.05;;;2.10;;
19973;SDS011;10148;47.694;9.442;2023-03-31T05:42:24;4.10;;;2.00;;
19973;SDS011;10148;47.694;9.442;2023-03-31T05:44:49;5.28;;;2.35;;
19973;SDS011;10148;47.694;9.442;2023-03-31T05:47:15;3.57;;;2.53;;
19973;SDS011;10148;47.694;9.442;2023-03-31T05:49:41;4.20;;;2.45;;
19973;SDS011;10148;47.694;9.442;2023-03-31T05:52:06;3.85;;;2.47;;
19973;SDS011;10148;47.694;9.442;2023-03-31T05:54:33;4.30;;;2.35;;
19973;SDS011;10148;47.694;9.442;2023-03-31T05:56:59;3.72;;;2.58;;
19973;SDS011;10148;47.694;9.442;2023-03-31T05:59:24;2.35;;;2.05;;
19973;SDS011;10148;47.694;9.442;2023-03-31T06:01:50;2.97;;;2.35;;
19973;SDS011;10148;47.694;9.442;2023-03-31T06:04:16;2.33;;;2.05;;
19973;SDS011;10148;47.694;9.442;2023-03-31T06:06:41;3.63;;;2.10;;
19973;SDS011;10148;47.694;9.442;2023-03-31T06:09:08;3.08;;;2.13;;
19973;SDS011;10148;47.694;9.442;2023-03-31T06:11:36;2.40;;;1.80;;
19973;SDS011;10148;47.694;9.442;2023-03-31T06:14:02;2.67;;;1.90;;
19973;SDS011;10148;47.694;9.442;2023-03-31T06:16:27;4.85;;;2.25;;
19973;SDS011;10148;47.694;9.442;2023-03-31T06:18:53;3.97;;;3.00;;
19973;SDS011;10148;47.694;9.442;2023-03-31T06:21:19;3.58;;;2.38;;
19973;SDS011;10148;47.694;9.442;2023-03-31T06:23:45;4.00;;;1.77;;
19973;SDS011;10148;47.694;9.442;2023-03-31T06:26:12;2.40;;;1.60;;
19973;SDS011;10148;47.694;9.442;2023-03-31T06:28:39;3.15;;;2.00;;
19973;SDS011;10148;47.694;9.442;2023-03-31T06:31:06;4.35;;;2.90;;
19973;SDS011;10148;47.694;9.442;2023-03-31T06:33:33;2.65;;;1.77;;
19973;SDS011;10148;47.694;9.442;2023-03-31T06:35:59;5.95;;;3.25;;
19973;SDS011;10148;47.694;9.442;2023-03-31T06:38:28;5.25;;;3.33;;
19973;SDS011;10148;47.694;9.442;2023-03-31T06:40:53;3.60;;;2.78;;
19973;SDS011;10148;47.694;9.442;2023-03-31T06:43:19;10.43;;;4.88;;
19973;SDS011;10148;47.694;9.442;2023-03-31T06:45:45;22.30;;;13.60;;
19973;SDS011;10148;47.694;9.442;2023-03-31T06:48:11;15.88;;;9.23;;
19973;SDS011;10148;47.694;9.442;2023-03-31T06:50:37;8.93;;;6.28;;
19973;SDS011;10148;47.694;9.442;2023-03-31T06:53:03;8.00;;;4.95;;
19973;SDS011;10148;47.694;9.442;2023-03-31T06:55:29;6.78;;;4.32;;
19973;SDS011;10148;47.694;9.442;2023-03-31T06:57:55;6.43;;;3.67;;
19973;SDS011;10148;47.694;9.442;2023-03-31T07:00:20;4.30;;;3.90;;
19973;SDS011;10148;47.694;9.442;2023-03-31T07:02:46;3.20;;;2.20;;
19973;SDS011;10148;47.694;9.442;2023-03-31T07:05:11;2.60;;;2.13;;
19973;SDS011;10148;47.694;9.442;2023-03-31T07:07:37;4.25;;;2.35;;
19973;SDS011;10148;47.694;9.442;2023-03-31T07:10:02;4.40;;;2.90;;
19973;SDS011;10148;47.694;9.442;2023-03-31T07:12:31;4.13;;;3.35;;
19973;SDS011;10148;47.694;9.442;2023-03-31T07:14:57;6.35;;;3.58;;
19973;SDS011;10148;47.694;9.442;2023-03-31T07:17:23;6.50;;;3.25;;
19973;SDS011;10148;47.694;9.442;2023-03-31T07:19:49;6.18;;;2.95;;
19973;SDS011;10148;47.694;9.442;2023-03-31T07:22:15;5.40;;;2.67;;
19973;SDS011;10148;47.694;9.442;2023-03-31T07:24:40;5.88;;;3.03;;
19973;SDS011;10148;47.694;9.442;2023-03-31T07:27:06;6.43;;;2.92;;
19973;SDS011;10148;47.694;9.442;2023-03-31T07:29:32;4.55;;;2.55;;
19973;SDS011;10148;47.694;9.442;2023-03-31T07:31:57;4.15;;;2.47;;
19973;SDS011;10148;47.694;9.442;2023-03-31T07:34:23;6.07;;;2.67;;
19973;SDS011;10148;47.694;9.442;2023-03-31T07:36:48;3.33;;;2.33;;
19973;SDS011;10148;47.694;9.442;2023-03-31T07:39:15;3.40;;;2.53;;
19973;SDS011;10148;47.694;9.442;2023-03-31T07:41:40;3.45;;;2.25;;
19973;SDS011;10148;47.694;9.442;2023-03-31T07:44:06;4.50;;;1.88;;
19973;SDS011;10148;47.694;9.442;2023-03-31T07:46:32;5.88;;;2.65;;
19973;SDS011;10148;47.694;9.442;2023-03-31T07:48:57;8.02;;;2.70;;
19973;SDS011;10148;47.694;9.442;2023-03-31T07:51:26;5.13;;;2.50;;
19973;SDS011;10148;47.694;9.442;2023-03-31T07:53:51;4.90;;;2.83;;
19973;SDS011;10148;47.694;9.442;2023-03-31T07:56:18;3.58;;;2.28;;
19973;SDS011;10148;47.694;9.442;2023-03-31T07:58:45;5.88;;;2.20;;
19973;SDS011;10148;47.694;9.442;2023-03-31T08:01:17;3.78;;;1.90;;
19973;SDS011;10148;47.694;9.442;2023-03-31T08:03:45;2.92;;;2.15;;
19973;SDS011;10148;47.694;9.442;2023-03-31T08:06:16;4.43;;;2.50;;
19973;SDS011;10148;47.694;9.442;2023-03-31T08:08:42;1.98;;;1.60;;
19973;SDS011;10148;47.694;9.442;2023-03-31T08:11:08;5.65;;;2.63;;
19973;SDS011;10148;47.694;9.442;2023-03-31T08:13:34;3.75;;;2.15;;
19973;SDS011;10148;47.694;9.442;2023-03-31T08:16:00;3.03;;;2.00;;
19973;SDS011;10148;47.694;9.442;2023-03-31T08:18:25;5.10;;;2.90;;
19973;SDS011;10148;47.694;9.442;2023-03-31T08:20:51;5.25;;;2.10;;
19973;SDS011;10148;47.694;9.442;2023-03-31T08:23:17;4.57;;;2.40;;
19973;SDS011;10148;47.694;9.442;2023-03-31T08:25:42;5.53;;;2.10;;
19973;SDS011;10148;47.694;9.442;2023-03-31T08:28:08;2.60;;;2.22;;
19973;SDS011;10148;47.694;9.442;2023-03-31T08:30:38;3.00;;;2.25;;
19973;SDS011;10148;47.694;9.442;2023-03-31T08:33:04;4.28;;;2.17;;
19973;SDS011;10148;47.694;9.442;2023-03-31T08:35:31;4.03;;;2.08;;
19973;SDS011;10148;47.694;9.442;2023-03-31T08:37:58;4.38;;;2.55;;
19973;SDS011;10148;47.694;9.442;2023-03-31T08:40:24;2.33;;;2.03;;
19973;SDS011;10148;47.694;9.442;2023-03-31T08:42:52;2.85;;;1.70;;
19973;SDS011;10148;47.694;9.442;2023-03-31T08:48:20;2.28;;;1.75;;
19973;SDS011;10148;47.694;9.442;2023-03-31T08:50:52;2.85;;;1.48;;
19973;SDS011;10148;47.694;9.442;2023-03-31T08:55:53;3.95;;;1.75;;
19973;SDS011;10148;47.694;9.442;2023-03-31T09:01:04;2.55;;;1.80;;
19973;SDS011;10148;47.694;9.442;2023-03-31T09:03:57;3.85;;;1.52;;
19973;SDS011;10148;47.694;9.442;2023-03-31T09:06:33;2.00;;;1.40;;
19973;SDS011;10148;47.694;9.442;2023-03-31T09:09:02;4.00;;;1.30;;
19973;SDS011;10148;47.694;9.442;2023-03-31T09:11:50;3.80;;;1.75;;
19973;SDS011;10148;47.694;9.442;2023-03-31T09:19:55;2.53;;;1.30;;
19973;SDS011;10148;47.694;9.442;2023-03-31T09:22:26;3.53;;;1.80;;
19973;SDS011;10148;47.694;9.442;2023-03-31T09:25:07;2.40;;;1.60;;
19973;SDS011;10148;47.694;9.442;2023-03-31T09:27:46;2.28;;;1.10;;
19973;SDS011;10148;47.694;9.442;2023-03-31T09:30:16;2.70;;;1.33;;
19973;SDS011;10148;47.694;9.442;2023-03-31T09:32:52;2.63;;;1.45;;
19973;SDS011;10148;47.694;9.442;2023-03-31T09:35:28;3.83;;;1.27;;
19973;SDS011;10148;47.694;9.442;2023-03-31T09:37:57;1.55;;;1.10;;
19973;SDS011;10148;47.694;9.442;2023-03-31T09:40:24;3.85;;;1.48;;
19973;SDS011;10148;47.694;9.442;2023-03-31T09:42:57;2.78;;;1.30;;
19973;SDS011;10148;47.694;9.442;2023-03-31T09:45:46;2.97;;;1.45;;
19973;SDS011;10148;47.694;9.442;2023-03-31T09:48:17;2.88;;;1.15;;
19973;SDS011;10148;47.694;9.442;2023-03-31T09:50:46;2.17;;;1.30;;
19973;SDS011;10148;47.694;9.442;2023-03-31T09:53:30;2.47;;;1.40;;
19973;SDS011;10148;47.694;9.442;2023-03-31T09:56:00;3.33;;;1.10;;
19973;SDS011;10148;47.694;9.442;2023-03-31T09:58:27;2.72;;;1.55;;
19973;SDS011;10148;47.694;9.442;2023-03-31T10:01:00;2.78;;;1.00;;
19973;SDS011;10148;47.694;9.442;2023-03-31T10:03:28;0.73;;;0.50;;
19973;SDS011;10148;47.694;9.442;2023-03-31T10:06:01;4.93;;;0.75;;
19973;SDS011;10148;47.694;9.442;2023-03-31T10:08:57;1.98;;;0.90;;
19973;SDS011;10148;47.694;9.442;2023-03-31T10:11:25;1.40;;;0.85;;
19973;SDS011;10148;47.694;9.442;2023-03-31T10:14:01;1.58;;;1.02;;
19973;SDS011;10148;47.694;9.442;2023-03-31T10:21:59;2.80;;;1.10;;
19973;SDS011;10148;47.694;9.442;2023-03-31T10:24:25;4.22;;;1.70;;
19973;SDS011;10148;47.694;9.442;2023-03-31T10:27:01;2.42;;;1.10;;
19973;SDS011;10148;47.694;9.442;2023-03-31T10:29:28;1.20;;;0.90;;
19973;SDS011;10148;47.694;9.442;2023-03-31T10:32:00;3.22;;;1.30;;
19973;SDS011;10148;47.694;9.442;2023-03-31T10:34:28;2.38;;;0.93;;
19973;SDS011;10148;47.694;9.442;2023-03-31T10:36:54;3.53;;;1.05;;
19973;SDS011;10148;47.694;9.442;2023-03-31T10:39:20;3.22;;;1.10;;
19973;SDS011;10148;47.694;9.442;2023-03-31T10:41:55;4.38;;;1.38;;
19973;SDS011;10148;47.694;9.442;2023-03-31T10:44:31;2.35;;;1.02;;
19973;SDS011;10148;47.694;9.442;2023-03-31T10:49:38;2.28;;;0.98;;
19973;SDS011;10148;47.694;9.442;2023-03-31T10:54:48;2.40;;;0.82;;
19973;SDS011;10148;47.694;9.442;2023-03-31T10:57:17;1.20;;;0.93;;
19973;SDS011;10148;47.694;9.442;2023-03-31T10:59:54;3.47;;;0.88;;
19973;SDS011;10148;47.694;9.442;2023-03-31T11:05:48;2.08;;;0.80;;
19973;SDS011;10148;47.694;9.442;2023-03-31T11:11:11;2.50;;;0.77;;
19973;SDS011;10148;47.694;9.442;2023-03-31T11:16:58;4.53;;;1.35;;
19973;SDS011;10148;47.694;9.442;2023-03-31T11:20:07;0.95;;;0.65;;
19973;SDS011;10148;47.694;9.442;2023-03-31T11:22:52;1.40;;;0.52;;
19973;SDS011;10148;47.694;9.442;2023-03-31T11:25:45;2.55;;;0.85;;
19973;SDS011;10148;47.694;9.442;2023-03-31T11:28:32;2.05;;;0.52;;
19973;SDS011;10148;47.694;9.442;2023-03-31T11:31:17;2.53;;;0.90;;
19973;SDS011;10148;47.694;9.442;2023-03-31T11:45:30;2.08;;;0.50;;
19973;SDS011;10148;47.694;9.442;2023-03-31T11:47:59;1.63;;;0.35;;
19973;SDS011;10148;47.694;9.442;2023-03-31T11:50:31;1.48;;;0.47;;
19973;SDS011;10148;47.694;9.442;2023-03-31T11:53:04;1.50;;;0.65;;
19973;SDS011;10148;47.694;9.442;2023-03-31T11:55:35;3.22;;;0.50;;
19973;SDS011;10148;47.694;9.442;2023-03-31T11:58:03;2.33;;;0.57;;
19973;SDS011;10148;47.694;9.442;2023-03-31T12:00:35;1.60;;;0.60;;
19973;SDS011;10148;47.694;9.442;2023-03-31T12:05:47;0.47;;;0.32;;
19973;SDS011;10148;47.694;9.442;2023-03-31T12:08:30;1.15;;;0.68;;
19973;SDS011;10148;47.694;9.442;2023-03-31T12:16:51;1.65;;;0.40;;
19973;SDS011;10148;47.694;9.442;2023-03-31T12:22:13;2.92;;;0.63;;
19973;SDS011;10148;47.694;9.442;2023-03-31T12:24:39;3.28;;;0.60;;
19973;SDS011;10148;47.694;9.442;2023-03-31T12:32:30;1.55;;;0.80;;
19973;SDS011;10148;47.694;9.442;2023-03-31T12:35:00;1.63;;;0.63;;
19973;SDS011;10148;47.694;9.442;2023-03-31T12:45:44;3.75;;;1.23;;
19973;SDS011;10148;47.694;9.442;2023-03-31T12:48:34;3.58;;;0.82;;
19973;SDS011;10148;47.694;9.442;2023-03-31T12:56:55;3.72;;;1.10;;
19973;SDS011;10148;47.694;9.442;2023-03-31T12:59:27;2.83;;;0.98;;
19973;SDS011;10148;47.694;9.442;2023-03-31T13:04:40;1.23;;;0.70;;
19973;SDS011;10148;47.694;9.442;2023-03-31T13:09:45;1.67;;;0.50;;
19973;SDS011;10148;47.694;9.442;2023-03-31T13:12:17;1.07;;;0.70;;
19973;SDS011;10148;47.694;9.442;2023-03-31T13:14:45;3.30;;;0.50;;
19973;SDS011;10148;47.694;9.442;2023-03-31T13:23:03;2.30;;;0.50;;
19973;SDS011;10148;47.694;9.442;2023-03-31T13:25:36;1.60;;;0.30;;
19973;SDS011;10148;47.694;9.442;2023-03-31T13:28:23;1.77;;;0.50;;
19973;SDS011;10148;47.694;9.442;2023-03-31T13:30:59;2.08;;;0.50;;
19973;SDS011;10148;47.694;9.442;2023-03-31T13:33:37;1.35;;;0.20;;
19973;SDS011;10148;47.694;9.442;2023-03-31T13:38:52;3.08;;;0.50;;
19973;SDS011;10148;47.694;9.442;2023-03-31T13:44:42;4.75;;;0.40;;
19973;SDS011;10148;47.694;9.442;2023-03-31T13:50:20;1.10;;;0.10;;
19973;SDS011;10148;47.694;9.442;2023-03-31T13:53:29;0.47;;;0.08;;
19973;SDS011;10148;47.694;9.442;2023-03-31T13:56:24;0.22;;;0.10;;
19973;SDS011;10148;47.694;9.442;2023-03-31T14:01:41;0.10;;;0.10;;
19973;SDS011;10148;47.694;9.442;2023-03-31T14:04:18;1.45;;;0.30;;
19973;SDS011;10148;47.694;9.442;2023-03-31T14:07:17;0.68;;;0.40;;
19973;SDS011;10148;47.694;9.442;2023-03-31T14:10:01;1.40;;;0.40;;
19973;SDS011;10148;47.694;9.442;2023-03-31T14:12:35;0.95;;;0.25;;
19973;SDS011;10148;47.694;9.442;2023-03-31T14:15:02;2.88;;;0.40;;
19973;SDS011;10148;47.694;9.442;2023-03-31T14:17:30;1.65;;;0.28;;
19973;SDS011;10148;47.694;9.442;2023-03-31T14:22:47;1.80;;;0.63;;
19973;SDS011;10148;47.694;9.442;2023-03-31T14:33:48;2.17;;;0.60;;
19973;SDS011;10148;47.694;9.442;2023-03-31T14:36:30;2.22;;;0.60;;
19973;SDS011;10148;47.694;9.442;2023-03-31T14:39:15;2.35;;;0.82;;
19973;SDS011;10148;47.694;9.442;2023-03-31T14:41:49;1.35;;;0.68;;
19973;SDS011;10148;47.694;9.442;2023-03-31T14:44:20;2.70;;;0.80;;
19973;SDS011;10148;47.694;9.442;2023-03-31T14:46:47;2.65;;;0.93;;
19973;SDS011;10148;47.694;9.442;2023-03-31T14:49:20;1.52;;;1.40;;
19973;SDS011;10148;47.694;9.442;2023-03-31T14:51:51;1.98;;;1.00;;
19973;SDS011;10148;47.694;9.442;2023-03-31T14:54:18;1.42;;;0.90;;
19973;SDS011;10148;47.694;9.442;2023-03-31T14:56:48;2.17;;;0.75;;
19973;SDS011;10148;47.694;9.442;2023-03-31T14:59:17;1.88;;;0.70;;
19973;SDS011;10148;47.694;9.442;2023-03-31T15:01:46;0.60;;;0.60;;
19973;SDS011;10148;47.694;9.442;2023-03-31T15:04:14;1.38;;;0.47;;
19973;SDS011;10148;47.694;9.442;2023-03-31T15:06:41;2.20;;;0.40;;
19973;SDS011;10148;47.694;9.442;2023-03-31T15:09:13;0.85;;;0.40;;
19973;SDS011;10148;47.694;9.442;2023-03-31T15:11:52;1.75;;;0.45;;
19973;SDS011;10148;47.694;9.442;2023-03-31T15:15:09;0.52;;;0.28;;
19973;SDS011;10148;47.694;9.442;2023-03-31T15:17:20;3.42;;;0.50;;
19973;SDS011;10148;47.694;9.442;2023-03-31T15:20:33;1.10;;;0.25;;
19973;SDS011;10148;47.694;9.442;2023-03-31T15:22:49;1.48;;;0.50;;
19973;SDS011;10148;47.694;9.442;2023-03-31T15:25:15;0.50;;;0.28;;
19973;SDS011;10148;47.694;9.442;2023-03-31T15:27:44;1.08;;;0.50;;
19973;SDS011;10148;47.694;9.442;2023-03-31T15:30:15;0.85;;;0.30;;
19973;SDS011;10148;47.694;9.442;2023-03-31T15:32:43;2.38;;;0.30;;
19973;SDS011;10148;47.694;9.442;2023-03-31T15:37:51;0.57;;;0.20;;
19973;SDS011;10148;47.694;9.442;2023-03-31T15:40:21;2.33;;;0.30;;
19973;SDS011;10148;47.694;9.442;2023-03-31T15:42:54;0.52;;;0.30;;
19973;SDS011;10148;47.694;9.442;2023-03-31T15:48:16;1.70;;;0.33;;
19973;SDS011;10148;47.694;9.442;2023-03-31T15:50:46;0.23;;;0.20;;
19973;SDS011;10148;47.694;9.442;2023-03-31T15:53:20;0.20;;;0.20;;
19973;SDS011;10148;47.694;9.442;2023-03-31T15:55:52;0.43;;;0.30;;
19973;SDS011;10148;47.694;9.442;2023-03-31T15:58:24;1.13;;;0.30;;
19973;SDS011;10148;47.694;9.442;2023-03-31T16:01:10;0.40;;;0.27;;
19973;SDS011;10148;47.694;9.442;2023-03-31T16:03:39;1.07;;;0.10;;
19973;SDS011;10148;47.694;9.442;2023-03-31T16:08:37;2.37;;;0.30;;
19973;SDS011;10148;47.694;9.442;2023-03-31T16:11:12;1.30;;;0.40;;
19973;SDS011;10148;47.694;9.442;2023-03-31T16:13:47;2.10;;;0.30;;
19973;SDS011;10148;47.694;9.442;2023-03-31T16:16:16;0.73;;;0.40;;
19973;SDS011;10148;47.694;9.442;2023-03-31T16:18:47;0.53;;;0.30;;
19973;SDS011;10148;47.694;9.442;2023-03-31T16:21:18;1.43;;;0.30;;
19973;SDS011;10148;47.694;9.442;2023-03-31T16:23:49;1.83;;;0.23;;
19973;SDS011;10148;47.694;9.442;2023-03-31T16:26:21;0.30;;;0.20;;
19973;SDS011;10148;47.694;9.442;2023-03-31T16:28:51;1.90;;;0.30;;
19973;SDS011;10148;47.694;9.442;2023-03-31T16:31:37;0.83;;;0.30;;
19973;SDS011;10148;47.694;9.442;2023-03-31T16:34:08;0.17;;;0.17;;
19973;SDS011;10148;47.694;9.442;2023-03-31T16:36:35;1.20;;;0.20;;
19973;SDS011;10148;47.694;9.442;2023-03-31T16:39:02;0.97;;;0.30;;
19973;SDS011;10148;47.694;9.442;2023-03-31T16:41:33;0.27;;;0.13;;
19973;SDS011;10148;47.694;9.442;2023-03-31T16:44:00;1.07;;;0.30;;
19973;SDS011;10148;47.694;9.442;2023-03-31T16:46:26;0.50;;;0.23;;
19973;SDS011;10148;47.694;9.442;2023-03-31T16:48:52;0.40;;;0.10;;
19973;SDS011;10148;47.694;9.442;2023-03-31T16:51:17;1.03;;;0.30;;
19973;SDS011;10148;47.694;9.442;2023-03-31T16:53:43;0.13;;;0.10;;
19973;SDS011;10148;47.694;9.442;2023-03-31T16:56:10;1.30;;;0.20;;
19973;SDS011;10148;47.694;9.442;2023-03-31T16:58:37;1.67;;;0.40;;
19973;SDS011;10148;47.694;9.442;2023-03-31T17:01:04;0.13;;;0.10;;
19973;SDS011;10148;47.694;9.442;2023-03-31T17:03:31;0.33;;;0.17;;
19973;SDS011;10148;47.694;9.442;2023-03-31T17:05:57;0.73;;;0.10;;
19973;SDS011;10148;47.694;9.442;2023-03-31T17:08:28;1.07;;;0.30;;
19973;SDS011;10148;47.694;9.442;2023-03-31T17:10:54;0.50;;;0.20;;
19973;SDS011;10148;47.694;9.442;2023-03-31T17:13:22;1.53;;;0.30;;
19973;SDS011;10148;47.694;9.442;2023-03-31T17:15:48;0.90;;;0.33;;
19973;SDS011;10148;47.694;9.442;2023-03-31T17:18:14;1.10;;;0.53;;
19973;SDS011;10148;47.694;9.442;2023-03-31T17:20:39;0.37;;;0.20;;
19973;SDS011;10148;47.694;9.442;2023-03-31T17:23:05;0.83;;;0.30;;
19973;SDS011;10148;47.694;9.442;2023-03-31T17:25:31;2.93;;;0.30;;
19973;SDS011;10148;47.694;9.442;2023-03-31T17:27:58;1.57;;;0.30;;
19973;SDS011;10148;47.694;9.442;2023-03-31T17:30:25;0.80;;;0.33;;
19973;SDS011;10148;47.694;9.442;2023-03-31T17:32:51;0.53;;;0.30;;
19973;SDS011;10148;47.694;9.442;2023-03-31T17:35:17;2.17;;;0.30;;
19973;SDS011;10148;47.694;9.442;2023-03-31T17:37:45;0.60;;;0.30;;
19973;SDS011;10148;47.694;9.442;2023-03-31T17:40:14;0.50;;;0.20;;
19973;SDS011;10148;47.694;9.442;2023-03-31T17:42:40;0.57;;;0.17;;